Aviation Digital Data Service (ADDS)

Output produced by METARs form (1911 UTC 25 June 2017)
found at http://www.aviationweather.gov/adds/metars/
 
TAF UMBB 251705Z 2518/2603 25005MPS 6000 SCT020 
     TEMPO 2518/2524 3000 -SHRA BR SCT010CB 
     TEMPO 2600/2603 2000 BR SCT005
       
UMGG 251900Z 21002MPS CAVOK 22/16 Q1009 R28/D NOSIG
TAF UMGG 251700Z 2518/2618 VRB01MPS 9999 SCT020 TX25/2610Z TN16/2600Z 
     TEMPO 2518/2604 21006MPS 2000 BR SCT005 
     FM260400 23008G13MPS 9999 BKN020 SCT030CB 
     TEMPO 2604/2618 VRB18MPS 2000 TSRA SQ BKN005 BKN030CB
       
UMMG 251500Z 24007G10MPS 9999 BKN040 BKN066 21/12 Q1007 NOSIG
TAF UMMG 251400Z 2515/2524 25009G14MPS 9999 BKN020CB 
     TEMPO 2515/2521 2100 -TSRA BKN007
       
UMMS 251900Z 19003MPS CAVOK 19/14 Q1008 R31/D NOSIG
TAF UMMS 251713Z 2518/2618 24006MPS 8000 BKN020 
     TEMPO 2518/2606 26007G12MPS 1200 SHRA BR BKN003 BKN020CB 
     PROB40 
     TEMPO 2520/2606 -TSRA BKN020CB 
     TEMPO 2606/2618 26009G14MPS 2500 -SHRA BKN005 BKN020CB 
     PROB40 
     TEMPO 2606/2618 -TSRA BKN025CB
       
TAF UMOO 251100Z 2512/2521 25005G10MPS 9999 BKN020 
     TEMPO 2512/2521 27008G13MPS 2100 -TSRA BKN007 SCT015CB